Terminal Aerodrome Forecast
Issued by NWS Boston, MA

Home | Current Version | Previous Version | Text Only | Print | Product List | Glossary On
Versions: 1 2 3 4 5 6 7 8 9 10 11 12 13 14 15 16 17 18 19 20 21 22 23 24 25 26 27 28 29 30 31 32 33 34 35 36 37 38 39 40 41 42 43 44 45 46 47 48
000
FTUS41 KBOX 302033 AAA
TAFBOS
TAF AMD
KBOS 302033Z 3021/3124 11010KT P6SM FEW050 BKN250
     FM302300 18009KT P6SM SCT090 BKN250
     FM310200 20007KT P6SM BKN090
     FM310700 20005KT P6SM VCSH OVC050
     FM311000 VRB03KT 3SM BR VCSH OVC015
     FM311300 10005KT P6SM VCSH OVC025
     FM312000 10006KT P6SM VCSH OVC040=

USA.gov is the U.S. government's official web portal to all federal, state and local government web resources and services.